Terminal Aerodrome Forecast
Issued by NWS Northern Indiana

Home | Current Version | Previous Version | Graphics & Text | Print | Product List | Glossary On
Versions: 1 2 3 4 5 6 7 8 9 10 11 12 13
000
FTUS43 KIWX 271800 AAA
TAFFWA
TAF AMD
KFWA 271826Z 2718/2818 27016G25KT 3SM TSRA BKN035CB OVC080
     FM271900 25015G23KT 6SM -SHRA VCTS OVC035CB
      TEMPO 2719/2721 4SM -TSRA OVC030CB
     FM272100 26014KT P6SM VCSH BKN030
     FM280000 29007KT P6SM SCT050
     FM280600 VRB02KT 5SM BR SKC
     FM281200 13004KT P6SM FEW050=

USA.gov is the U.S. government's official web portal to all federal, state and local government web resources and services.